sensor_id;sensor_type;location;lat;lon;timestamp;P1;durP1;ratioP1;P2;durP2;ratioP2
78207;SDS011;67481;50.244;18.288;2023-07-13T17:16:54;5.07;;;3.05;;
78207;SDS011;67481;50.244;18.288;2023-07-13T17:19:42;5.45;;;2.88;;
78207;SDS011;67481;50.244;18.288;2023-07-13T17:22:28;5.93;;;2.70;;
78207;SDS011;67481;50.244;18.288;2023-07-13T17:25:14;4.15;;;2.80;;
78207;SDS011;67481;50.244;18.288;2023-07-13T17:28:00;4.38;;;3.10;;
78207;SDS011;67481;50.244;18.288;2023-07-13T17:30:50;5.03;;;2.90;;
78207;SDS011;67481;50.244;18.288;2023-07-13T17:33:41;5.80;;;3.83;;
78207;SDS011;67481;50.244;18.288;2023-07-13T17:36:27;6.38;;;3.97;;
78207;SDS011;67481;50.244;18.288;2023-07-13T17:39:19;6.25;;;4.10;;
78207;SDS011;67481;50.244;18.288;2023-07-13T17:42:06;6.18;;;3.92;;
78207;SDS011;67481;50.244;18.288;2023-07-13T17:47:40;6.05;;;4.50;;
78207;SDS011;67481;50.244;18.288;2023-07-13T17:50:28;6.70;;;3.55;;
78207;SDS011;67481;50.244;18.288;2023-07-13T17:53:22;5.25;;;3.88;;
78207;SDS011;67481;50.244;18.288;2023-07-13T17:56:21;6.50;;;4.68;;
78207;SDS011;67481;50.244;18.288;2023-07-13T17:59:11;6.60;;;4.70;;
78207;SDS011;67481;50.244;18.288;2023-07-13T18:01:58;6.82;;;5.00;;
78207;SDS011;67481;50.244;18.288;2023-07-13T18:04:48;5.90;;;4.68;;
78207;SDS011;67481;50.244;18.288;2023-07-13T18:07:35;6.38;;;4.45;;
78207;SDS011;67481;50.244;18.288;2023-07-13T18:10:25;6.88;;;5.20;;
78207;SDS011;67481;50.244;18.288;2023-07-13T18:13:11;8.52;;;5.97;;
78207;SDS011;67481;50.244;18.288;2023-07-13T18:16:44;13.52;;;9.18;;
78207;SDS011;67481;50.244;18.288;2023-07-13T18:19:32;13.18;;;9.05;;
78207;SDS011;67481;50.244;18.288;2023-07-13T18:22:20;12.60;;;7.20;;
78207;SDS011;67481;50.244;18.288;2023-07-13T18:25:14;12.30;;;7.47;;
78207;SDS011;67481;50.244;18.288;2023-07-13T18:28:01;11.20;;;9.00;;
78207;SDS011;67481;50.244;18.288;2023-07-13T18:30:54;17.38;;;11.75;;
78207;SDS011;67481;50.244;18.288;2023-07-13T18:33:41;21.17;;;14.55;;
78207;SDS011;67481;50.244;18.288;2023-07-13T18:36:31;17.13;;;9.55;;
78207;SDS011;67481;50.244;18.288;2023-07-13T18:39:20;10.32;;;7.03;;
78207;SDS011;67481;50.244;18.288;2023-07-13T18:45:31;8.38;;;6.50;;
78207;SDS011;67481;50.244;18.288;2023-07-13T18:48:19;9.18;;;6.72;;
78207;SDS011;67481;50.244;18.288;2023-07-13T18:51:09;9.25;;;6.75;;
78207;SDS011;67481;50.244;18.288;2023-07-13T18:53:57;12.88;;;7.80;;
78207;SDS011;67481;50.244;18.288;2023-07-13T18:56:44;10.57;;;6.90;;
78207;SDS011;67481;50.244;18.288;2023-07-13T18:59:34;10.23;;;7.43;;
78207;SDS011;67481;50.244;18.288;2023-07-13T19:02:23;9.13;;;6.78;;
78207;SDS011;67481;50.244;18.288;2023-07-13T19:05:13;10.60;;;7.55;;
78207;SDS011;67481;50.244;18.288;2023-07-13T19:08:04;10.63;;;7.18;;
78207;SDS011;67481;50.244;18.288;2023-07-13T19:10:55;9.13;;;6.97;;
78207;SDS011;67481;50.244;18.288;2023-07-13T19:13:43;9.32;;;6.75;;
78207;SDS011;67481;50.244;18.288;2023-07-13T19:16:37;10.00;;;6.47;;
78207;SDS011;67481;50.244;18.288;2023-07-13T19:19:29;9.75;;;6.10;;
78207;SDS011;67481;50.244;18.288;2023-07-13T19:22:18;9.27;;;6.82;;
78207;SDS011;67481;50.244;18.288;2023-07-13T19:25:11;10.25;;;6.60;;
78207;SDS011;67481;50.244;18.288;2023-07-13T19:28:00;10.57;;;7.20;;
78207;SDS011;67481;50.244;18.288;2023-07-13T19:30:49;9.18;;;6.25;;
78207;SDS011;67481;50.244;18.288;2023-07-13T19:33:36;8.73;;;6.90;;
78207;SDS011;67481;50.244;18.288;2023-07-13T19:36:24;8.27;;;5.55;;
78207;SDS011;67481;50.244;18.288;2023-07-13T19:39:25;8.43;;;6.47;;
78207;SDS011;67481;50.244;18.288;2023-07-13T19:42:26;8.73;;;6.22;;
78207;SDS011;67481;50.244;18.288;2023-07-13T19:45:15;8.88;;;5.65;;
78207;SDS011;67481;50.244;18.288;2023-07-13T19:48:08;8.48;;;6.50;;
78207;SDS011;67481;50.244;18.288;2023-07-13T19:50:56;8.20;;;6.10;;
78207;SDS011;67481;50.244;18.288;2023-07-13T19:53:42;8.50;;;5.97;;
78207;SDS011;67481;50.244;18.288;2023-07-13T19:56:29;9.85;;;6.90;;
78207;SDS011;67481;50.244;18.288;2023-07-13T20:02:08;10.32;;;5.80;;
78207;SDS011;67481;50.244;18.288;2023-07-13T20:04:54;9.65;;;6.50;;
78207;SDS011;67481;50.244;18.288;2023-07-13T20:07:54;9.52;;;5.88;;
78207;SDS011;67481;50.244;18.288;2023-07-13T20:10:43;10.25;;;6.65;;
78207;SDS011;67481;50.244;18.288;2023-07-13T20:13:31;9.75;;;6.55;;
78207;SDS011;67481;50.244;18.288;2023-07-13T20:16:20;12.30;;;7.47;;
78207;SDS011;67481;50.244;18.288;2023-07-13T20:19:13;11.55;;;7.18;;
78207;SDS011;67481;50.244;18.288;2023-07-13T20:22:07;10.48;;;6.47;;
78207;SDS011;67481;50.244;18.288;2023-07-13T20:24:57;12.63;;;6.93;;
78207;SDS011;67481;50.244;18.288;2023-07-13T20:27:43;12.63;;;7.63;;
78207;SDS011;67481;50.244;18.288;2023-07-13T20:30:30;12.85;;;7.70;;
78207;SDS011;67481;50.244;18.288;2023-07-13T20:33:23;14.52;;;7.53;;
78207;SDS011;67481;50.244;18.288;2023-07-13T20:36:11;13.43;;;7.80;;
78207;SDS011;67481;50.244;18.288;2023-07-13T20:39:14;13.48;;;7.63;;
78207;SDS011;67481;50.244;18.288;2023-07-13T20:42:02;11.85;;;6.63;;
78207;SDS011;67481;50.244;18.288;2023-07-13T20:44:57;12.98;;;6.63;;
78207;SDS011;67481;50.244;18.288;2023-07-13T20:47:46;11.27;;;7.35;;
78207;SDS011;67481;50.244;18.288;2023-07-13T20:50:35;11.88;;;7.82;;
78207;SDS011;67481;50.244;18.288;2023-07-13T20:53:23;13.00;;;8.02;;
78207;SDS011;67481;50.244;18.288;2023-07-13T20:56:16;13.75;;;7.82;;
78207;SDS011;67481;50.244;18.288;2023-07-13T20:59:07;12.48;;;8.20;;
78207;SDS011;67481;50.244;18.288;2023-07-13T21:01:53;12.15;;;7.25;;
78207;SDS011;67481;50.244;18.288;2023-07-13T21:04:40;12.43;;;7.50;;
78207;SDS011;67481;50.244;18.288;2023-07-13T21:07:26;12.35;;;6.75;;
78207;SDS011;67481;50.244;18.288;2023-07-13T21:13:05;9.65;;;6.32;;
78207;SDS011;67481;50.244;18.288;2023-07-13T21:15:55;11.27;;;7.63;;
78207;SDS011;67481;50.244;18.288;2023-07-13T21:18:44;11.55;;;7.78;;
78207;SDS011;67481;50.244;18.288;2023-07-13T21:21:34;12.95;;;7.85;;
78207;SDS011;67481;50.244;18.288;2023-07-13T21:24:24;11.48;;;7.60;;
78207;SDS011;67481;50.244;18.288;2023-07-13T21:27:14;10.80;;;7.18;;
78207;SDS011;67481;50.244;18.288;2023-07-13T21:30:04;11.60;;;7.57;;
78207;SDS011;67481;50.244;18.288;2023-07-13T21:32:52;12.27;;;7.68;;
78207;SDS011;67481;50.244;18.288;2023-07-13T21:35:40;11.25;;;7.15;;
78207;SDS011;67481;50.244;18.288;2023-07-13T21:38:28;10.55;;;6.85;;
78207;SDS011;67481;50.244;18.288;2023-07-13T21:44:26;11.00;;;7.20;;
78207;SDS011;67481;50.244;18.288;2023-07-13T21:47:13;12.00;;;7.57;;
78207;SDS011;67481;50.244;18.288;2023-07-13T21:50:00;11.57;;;7.20;;
78207;SDS011;67481;50.244;18.288;2023-07-13T21:52:48;11.20;;;7.07;;
78207;SDS011;67481;50.244;18.288;2023-07-13T21:55:34;10.35;;;6.78;;
78207;SDS011;67481;50.244;18.288;2023-07-13T21:58:28;11.65;;;7.15;;
78207;SDS011;67481;50.244;18.288;2023-07-13T22:01:28;11.60;;;7.22;;
78207;SDS011;67481;50.244;18.288;2023-07-13T22:04:20;9.95;;;7.03;;
78207;SDS011;67481;50.244;18.288;2023-07-13T22:07:09;11.35;;;7.38;;
78207;SDS011;67481;50.244;18.288;2023-07-13T22:09:57;11.48;;;6.97;;
78207;SDS011;67481;50.244;18.288;2023-07-13T22:12:43;10.98;;;6.93;;
78207;SDS011;67481;50.244;18.288;2023-07-13T22:15:30;9.10;;;6.25;;
78207;SDS011;67481;50.244;18.288;2023-07-13T22:18:20;10.00;;;6.93;;
78207;SDS011;67481;50.244;18.288;2023-07-13T22:21:25;12.00;;;6.97;;
78207;SDS011;67481;50.244;18.288;2023-07-13T22:24:18;11.15;;;6.85;;
78207;SDS011;67481;50.244;18.288;2023-07-13T22:27:09;10.25;;;6.85;;
78207;SDS011;67481;50.244;18.288;2023-07-13T22:29:56;11.88;;;6.03;;
78207;SDS011;67481;50.244;18.288;2023-07-13T22:32:46;11.30;;;6.93;;
78207;SDS011;67481;50.244;18.288;2023-07-13T22:35:32;11.20;;;7.10;;
78207;SDS011;67481;50.244;18.288;2023-07-13T22:38:26;9.73;;;5.75;;
78207;SDS011;67481;50.244;18.288;2023-07-13T22:41:13;11.13;;;6.95;;
78207;SDS011;67481;50.244;18.288;2023-07-13T22:44:00;9.30;;;7.05;;
78207;SDS011;67481;50.244;18.288;2023-07-13T22:46:47;11.15;;;7.10;;
78207;SDS011;67481;50.244;18.288;2023-07-13T22:49:34;9.95;;;6.85;;
78207;SDS011;67481;50.244;18.288;2023-07-13T22:52:21;10.80;;;6.97;;
78207;SDS011;67481;50.244;18.288;2023-07-13T22:55:12;9.25;;;6.32;;
78207;SDS011;67481;50.244;18.288;2023-07-13T22:57:59;9.50;;;5.93;;
78207;SDS011;67481;50.244;18.288;2023-07-13T23:00:48;10.75;;;6.47;;
78207;SDS011;67481;50.244;18.288;2023-07-13T23:03:35;10.77;;;6.95;;
78207;SDS011;67481;50.244;18.288;2023-07-13T23:06:22;10.38;;;6.65;;
78207;SDS011;67481;50.244;18.288;2023-07-13T23:09:13;10.35;;;6.07;;
78207;SDS011;67481;50.244;18.288;2023-07-13T23:12:00;10.95;;;7.10;;
78207;SDS011;67481;50.244;18.288;2023-07-13T23:17:33;10.18;;;6.85;;
78207;SDS011;67481;50.244;18.288;2023-07-13T23:20:25;10.73;;;6.63;;
78207;SDS011;67481;50.244;18.288;2023-07-13T23:23:19;10.35;;;5.97;;
78207;SDS011;67481;50.244;18.288;2023-07-13T23:26:11;10.73;;;7.10;;
78207;SDS011;67481;50.244;18.288;2023-07-13T23:28:57;12.13;;;6.55;;
78207;SDS011;67481;50.244;18.288;2023-07-13T23:31:44;10.65;;;7.13;;
78207;SDS011;67481;50.244;18.288;2023-07-13T23:34:31;10.90;;;6.80;;
78207;SDS011;67481;50.244;18.288;2023-07-13T23:37:17;9.55;;;6.07;;
78207;SDS011;67481;50.244;18.288;2023-07-13T23:40:22;9.40;;;6.35;;
78207;SDS011;67481;50.244;18.288;2023-07-13T23:43:10;10.98;;;6.68;;
78207;SDS011;67481;50.244;18.288;2023-07-13T23:45:56;10.35;;;6.57;;
78207;SDS011;67481;50.244;18.288;2023-07-13T23:48:43;9.45;;;5.82;;
78207;SDS011;67481;50.244;18.288;2023-07-13T23:51:29;8.80;;;5.65;;
78207;SDS011;67481;50.244;18.288;2023-07-13T23:54:16;9.80;;;6.55;;
78207;SDS011;67481;50.244;18.288;2023-07-13T23:57:03;10.65;;;6.22;;
78207;SDS011;67481;50.244;18.288;2023-07-13T23:59:50;9.85;;;6.32;;
